Time;durP1;ratioP1;P1;durP2;ratioP2;P2;SDS_P1;SDS_P2;PMS_P1;PMS_P2;Temp;Humidity;BMP_temperature;BMP_pressure;BME280_temperature;BME280_humidity;BME280_pressure;Samples;Min_cycle;Max_cycle;Signal;HPM_P1;HPM_P2
2023/07/16 00:00:38;;;;;;;0.20;0.20;;;27.40;69.40;;;;;;4963734;28;20190;-85
2023/07/16 00:03:06;;;;;;;0.50;0.50;;;27.40;69.60;;;;;;4971295;28;20282;-84
2023/07/16 00:05:38;;;;;;;0.20;0.20;;;27.30;69.50;;;;;;4966619;28;20190;-84
2023/07/16 00:08:06;;;;;;;0.68;0.68;;;27.30;69.60;;;;;;4970581;28;20666;-85
2023/07/16 00:10:36;;;;;;;0.52;0.40;;;27.30;69.60;;;;;;4968140;28;20662;-84
2023/07/16 00:13:05;;;;;;;0.57;0.30;;;27.30;69.60;;;;;;4970107;28;20280;-85
2023/07/16 00:15:33;;;;;;;0.30;0.30;;;27.20;69.70;;;;;;4965301;28;20194;-84
2023/07/16 00:18:05;;;;;;;0.43;0.43;;;27.30;69.80;;;;;;4971279;28;20237;-86
2023/07/16 00:20:34;;;;;;;0.22;0.22;;;27.20;69.80;;;;;;4969056;28;20288;-86
2023/07/16 00:23:02;;;;;;;0.20;0.20;;;27.20;69.80;;;;;;4966305;28;20217;-86
2023/07/16 00:25:31;;;;;;;0.20;0.20;;;27.20;69.80;;;;;;4968308;28;20225;-85
2023/07/16 00:27:59;;;;;;;0.20;0.20;;;27.20;69.90;;;;;;4968965;28;20307;-85
2023/07/16 00:30:27;;;;;;;0.40;0.35;;;27.10;69.90;;;;;;4964851;28;20211;-85
2023/07/16 00:32:56;;;;;;;0.20;0.20;;;27.10;69.90;;;;;;4969789;28;20292;-85
2023/07/16 00:35:26;;;;;;;0.30;0.30;;;27.10;69.90;;;;;;4962938;28;20190;-86
2023/07/16 00:37:54;;;;;;;0.30;0.30;;;27.10;70.10;;;;;;4969266;28;20232;-86
2023/07/16 00:40:23;;;;;;;0.20;0.20;;;27.10;70.10;;;;;;4968631;28;20197;-85
2023/07/16 00:42:51;;;;;;;0.30;0.30;;;27.00;70.10;;;;;;4970340;28;20204;-84
2023/07/16 00:45:20;;;;;;;0.20;0.20;;;27.00;70.20;;;;;;4972055;28;20204;-86
2023/07/16 00:47:48;;;;;;;0.50;0.38;;;27.00;70.20;;;;;;4967881;28;20224;-86
2023/07/16 00:50:17;;;;;;;1.35;0.40;;;27.00;70.20;;;;;;4971126;28;20316;-86
2023/07/16 00:52:46;;;;;;;0.40;0.30;;;27.00;70.60;;;;;;4972087;28;20202;-84
2023/07/16 00:55:17;;;;;;;1.73;0.40;;;26.90;70.60;;;;;;4972062;28;20198;-86
2023/07/16 00:57:47;;;;;;;0.28;0.28;;;26.90;70.70;;;;;;4974325;28;20197;-85
2023/07/16 01:00:16;;;;;;;0.20;0.20;;;26.90;70.80;;;;;;4968820;28;20539;-84
2023/07/16 01:02:45;;;;;;;0.20;0.20;;;26.80;70.90;;;;;;4971808;28;20204;-87
2023/07/16 01:05:13;;;;;;;0.50;0.50;;;26.80;71.10;;;;;;4971041;28;20208;-85
2023/07/16 01:07:56;;;;;;;0.25;0.25;;;26.70;71.30;;;;;;4962855;28;20560;-84
2023/07/16 01:10:26;;;;;;;0.30;0.30;;;26.70;71.40;;;;;;4971032;28;20209;-85
2023/07/16 01:12:55;;;;;;;0.20;0.20;;;26.70;71.60;;;;;;4963402;28;20208;-82
2023/07/16 01:15:24;;;;;;;0.20;0.20;;;26.70;71.80;;;;;;4968762;28;20194;-84
2023/07/16 01:17:52;;;;;;;2.95;0.50;;;26.70;72.30;;;;;;4975105;28;20667;-85
2023/07/16 01:20:20;;;;;;;1.30;0.60;;;26.60;72.80;;;;;;4965673;28;20206;-84
2023/07/16 01:23:15;;;;;;;1.35;1.08;;;26.50;73.30;;;;;;4969784;28;20201;-83
2023/07/16 01:26:03;;;;;;;1.05;0.57;;;26.50;74.30;;;;;;4967407;28;20673;-85
2023/07/16 01:29:29;;;;;;;1.02;0.82;;;26.40;74.50;;;;;;4971087;28;20214;-83
2023/07/16 01:32:01;;;;;;;0.60;0.50;;;26.40;75.00;;;;;;4884915;29;20201;-85
2023/07/16 01:34:33;;;;;;;1.10;0.85;;;26.40;75.30;;;;;;4886801;29;20206;-85
2023/07/16 01:37:02;;;;;;;1.60;0.88;;;26.30;75.20;;;;;;4937792;28;20225;-84
2023/07/16 01:39:32;;;;;;;0.52;0.40;;;26.30;75.60;;;;;;4969309;28;20249;-86
2023/07/16 01:42:01;;;;;;;0.85;0.85;;;26.30;76.20;;;;;;4971881;28;20198;-85
2023/07/16 01:44:29;;;;;;;0.35;0.35;;;26.30;76.40;;;;;;4968574;28;20197;-85
2023/07/16 01:47:11;;;;;;;3.25;0.93;;;26.20;76.60;;;;;;4966791;28;20220;-85
2023/07/16 01:49:41;;;;;;;0.57;0.57;;;26.10;77.30;;;;;;4969229;28;20186;-86
2023/07/16 01:52:10;;;;;;;0.82;0.77;;;26.10;77.40;;;;;;4971169;28;20201;-84
2023/07/16 01:54:39;;;;;;;0.30;0.30;;;26.10;77.30;;;;;;4969415;28;20648;-84
2023/07/16 01:57:08;;;;;;;2.75;0.40;;;26.10;77.20;;;;;;4972008;28;20201;-85
2023/07/16 01:59:36;;;;;;;0.80;0.70;;;26.00;77.40;;;;;;4968667;28;20229;-83
2023/07/16 02:02:05;;;;;;;0.55;0.47;;;26.00;78.10;;;;;;4971967;28;20547;-86
2023/07/16 02:04:35;;;;;;;0.38;0.38;;;26.00;78.80;;;;;;4972210;28;20213;-84
2023/07/16 02:07:04;;;;;;;0.82;0.63;;;25.90;78.80;;;;;;4967237;28;20195;-85
2023/07/16 02:09:32;;;;;;;1.80;1.02;;;25.90;78.90;;;;;;4957393;28;20203;-86
2023/07/16 02:12:01;;;;;;;0.47;0.47;;;25.80;78.80;;;;;;4973201;28;20256;-86
2023/07/16 02:14:29;;;;;;;0.50;0.35;;;25.80;79.20;;;;;;4968862;28;20668;-85
2023/07/16 02:16:57;;;;;;;0.30;0.30;;;25.80;79.20;;;;;;4970034;28;20201;-84
2023/07/16 02:19:26;;;;;;;0.30;0.30;;;25.80;78.80;;;;;;4972360;28;20217;-85
2023/07/16 02:21:56;;;;;;;0.65;0.60;;;25.80;78.80;;;;;;4971574;28;20233;-85
2023/07/16 02:24:25;;;;;;;0.57;0.57;;;25.70;80.10;;;;;;4968253;28;20199;-85
2023/07/16 02:26:53;;;;;;;1.35;0.68;;;25.70;80.10;;;;;;4968300;28;20190;-83
2023/07/16 02:29:22;;;;;;;0.32;0.32;;;25.70;80.10;;;;;;4969833;28;20209;-85
2023/07/16 02:31:50;;;;;;;0.63;0.63;;;25.70;79.90;;;;;;4958184;28;20202;-85
2023/07/16 02:34:19;;;;;;;0.45;0.40;;;25.60;80.40;;;;;;4963852;28;20593;-85
2023/07/16 02:36:47;;;;;;;0.70;0.70;;;25.60;80.30;;;;;;4960124;28;20199;-85
2023/07/16 02:39:17;;;;;;;0.50;0.50;;;25.60;80.30;;;;;;4968200;28;20288;-85
2023/07/16 02:41:45;;;;;;;0.60;0.60;;;25.50;80.20;;;;;;4968496;28;20721;-84
2023/07/16 02:44:14;;;;;;;0.35;0.35;;;25.60;80.20;;;;;;4964237;28;20661;-85
2023/07/16 02:46:44;;;;;;;0.30;0.30;;;25.50;80.50;;;;;;4968369;28;20202;-84
2023/07/16 02:49:12;;;;;;;1.70;1.13;;;25.50;80.60;;;;;;4968447;28;20232;-85
2023/07/16 02:51:41;;;;;;;0.43;0.43;;;25.40;81.30;;;;;;4967580;28;20288;-84
2023/07/16 02:54:09;;;;;;;1.52;1.10;;;25.40;81.30;;;;;;4968193;28;20256;-84
2023/07/16 02:56:39;;;;;;;3.55;1.15;;;25.40;81.70;;;;;;4961885;28;20208;-85
2023/07/16 02:59:07;;;;;;;0.77;0.50;;;25.40;81.90;;;;;;4970840;28;20228;-83
2023/07/16 03:01:36;;;;;;;0.73;0.70;;;25.30;81.60;;;;;;4969519;28;20216;-86
2023/07/16 03:04:04;;;;;;;1.50;0.50;;;25.40;81.80;;;;;;4967023;28;20198;-83
2023/07/16 03:06:33;;;;;;;0.30;0.30;;;25.30;81.60;;;;;;4968790;28;20204;-85
2023/07/16 03:09:01;;;;;;;0.70;0.70;;;25.30;81.80;;;;;;4968911;28;20666;-83
2023/07/16 03:11:30;;;;;;;0.88;0.80;;;25.30;82.10;;;;;;4965818;28;20693;-83
2023/07/16 03:13:59;;;;;;;0.63;0.50;;;25.30;82.30;;;;;;4969503;28;20577;-83
2023/07/16 03:16:28;;;;;;;0.80;0.60;;;25.30;82.20;;;;;;4967362;28;20190;-82
2023/07/16 03:18:57;;;;;;;0.32;0.32;;;25.30;82.30;;;;;;4970138;28;20229;-84
2023/07/16 03:21:26;;;;;;;0.50;0.50;;;25.20;82.10;;;;;;4967645;28;20205;-85
2023/07/16 03:23:55;;;;;;;0.30;0.30;;;25.30;82.20;;;;;;4969718;28;20197;-83
2023/07/16 03:26:24;;;;;;;0.32;0.32;;;25.30;82.20;;;;;;4971770;28;20233;-85
2023/07/16 03:28:52;;;;;;;0.47;0.47;;;25.20;82.40;;;;;;4965807;28;20203;-83
2023/07/16 03:31:22;;;;;;;0.63;0.55;;;25.30;82.40;;;;;;4968687;28;20210;-85
2023/07/16 03:33:51;;;;;;;1.15;0.60;;;25.30;82.30;;;;;;4968652;28;20205;-84
2023/07/16 03:36:20;;;;;;;0.43;0.43;;;25.30;82.70;;;;;;4968125;28;20746;-85
2023/07/16 03:38:48;;;;;;;0.20;0.20;;;25.30;82.90;;;;;;4967991;28;20202;-84
2023/07/16 03:41:16;;;;;;;12.68;1.10;;;25.30;82.70;;;;;;4971503;28;20712;-86
2023/07/16 03:43:45;;;;;;;0.40;0.40;;;25.30;82.90;;;;;;4970470;28;20214;-86
2023/07/16 03:46:13;;;;;;;0.30;0.30;;;25.30;82.90;;;;;;4970126;28;20693;-85
2023/07/16 03:48:44;;;;;;;0.47;0.47;;;25.40;82.60;;;;;;4959486;28;20280;-84
2023/07/16 03:51:12;;;;;;;1.27;0.73;;;25.40;82.60;;;;;;4960650;28;20197;-83
2023/07/16 03:53:40;;;;;;;0.32;0.30;;;25.40;82.50;;;;;;4963658;28;20202;-83
2023/07/16 03:56:09;;;;;;;1.23;0.70;;;25.40;82.50;;;;;;4969782;28;20256;-85
2023/07/16 03:58:37;;;;;;;0.50;0.50;;;25.40;82.30;;;;;;4965231;28;20640;-86
2023/07/16 04:01:06;;;;;;;0.30;0.30;;;25.50;82.10;;;;;;4966752;28;20221;-86
2023/07/16 04:03:34;;;;;;;1.92;0.43;;;25.50;82.10;;;;;;4970156;28;20209;-85
2023/07/16 04:06:05;;;;;;;0.40;0.40;;;25.50;81.80;;;;;;4968416;28;20206;-85
2023/07/16 04:08:34;;;;;;;0.82;0.68;;;25.60;81.70;;;;;;4968885;28;20623;-85
2023/07/16 04:11:02;;;;;;;0.63;0.55;;;25.60;81.60;;;;;;4968317;28;20205;-84
2023/07/16 04:13:32;;;;;;;0.20;0.20;;;25.70;81.60;;;;;;4968687;28;20201;-85
2023/07/16 04:16:00;;;;;;;0.35;0.28;;;25.70;81.40;;;;;;4969065;28;20305;-84
2023/07/16 04:18:29;;;;;;;0.32;0.28;;;25.80;81.40;;;;;;4966321;28;20197;-86
2023/07/16 04:20:57;;;;;;;0.30;0.30;;;25.80;82.20;;;;;;4967340;28;20218;-85
2023/07/16 04:23:27;;;;;;;0.20;0.20;;;25.80;81.20;;;;;;4968628;28;20209;-84
2023/07/16 04:25:57;;;;;;;0.30;0.30;;;25.90;81.10;;;;;;4967693;28;20225;-86
2023/07/16 04:28:25;;;;;;;0.50;0.50;;;25.90;81.10;;;;;;4967133;28;20389;-86
2023/07/16 04:30:54;;;;;;;1.10;0.77;;;25.90;81.00;;;;;;4963613;28;20221;-84
2023/07/16 04:33:22;;;;;;;0.30;0.30;;;26.00;81.00;;;;;;4968198;28;20577;-85
2023/07/16 04:35:51;;;;;;;0.28;0.28;;;26.00;81.00;;;;;;4965575;28;20714;-85
2023/07/16 04:38:19;;;;;;;3.75;0.75;;;26.10;80.90;;;;;;4968241;28;20644;-85
2023/07/16 04:40:49;;;;;;;0.95;0.60;;;26.10;80.70;;;;;;4968999;28;20273;-85
2023/07/16 04:43:17;;;;;;;0.93;0.60;;;26.20;80.70;;;;;;4967953;28;20200;-84
2023/07/16 04:45:46;;;;;;;0.30;0.30;;;26.20;80.40;;;;;;4963040;28;20550;-83
2023/07/16 04:48:15;;;;;;;0.32;0.32;;;26.30;80.30;;;;;;4963645;28;20202;-85
2023/07/16 04:50:43;;;;;;;0.60;0.30;;;26.30;80.30;;;;;;4969030;28;20325;-85
2023/07/16 04:53:12;;;;;;;0.73;0.50;;;26.40;80.20;;;;;;4967888;28;20198;-84
2023/07/16 04:55:40;;;;;;;0.40;0.35;;;26.40;80.20;;;;;;4966132;28;20208;-86
2023/07/16 04:58:12;;;;;;;1.13;0.40;;;26.40;80.40;;;;;;4963536;28;20209;-85
2023/07/16 05:00:41;;;;;;;0.38;0.28;;;26.50;80.30;;;;;;4968074;28;20605;-84
2023/07/16 05:03:09;;;;;;;0.28;0.28;;;26.50;80.30;;;;;;4963693;28;20208;-86
2023/07/16 05:05:38;;;;;;;1.50;0.73;;;26.50;80.00;;;;;;4963031;28;20203;-86
2023/07/16 05:08:06;;;;;;;1.75;0.88;;;26.60;79.90;;;;;;4967837;28;20204;-86
2023/07/16 05:10:35;;;;;;;1.58;0.60;;;26.60;79.70;;;;;;4970517;28;20272;-84
2023/07/16 05:13:03;;;;;;;0.30;0.30;;;26.70;79.70;;;;;;4967486;28;20205;-87
2023/07/16 05:15:35;;;;;;;13.90;0.60;;;26.70;79.40;;;;;;4966374;28;20209;-84
2023/07/16 05:18:03;;;;;;;0.30;0.30;;;26.80;79.10;;;;;;4960928;28;20193;-84
2023/07/16 05:20:32;;;;;;;0.35;0.35;;;26.80;79.00;;;;;;4966798;28;20229;-84
2023/07/16 05:23:00;;;;;;;3.13;0.60;;;26.90;79.00;;;;;;4958546;28;20276;-85
2023/07/16 05:25:29;;;;;;;0.43;0.43;;;27.00;78.90;;;;;;4965435;28;20261;-87
2023/07/16 05:28:00;;;;;;;1.08;0.60;;;27.00;78.70;;;;;;4963362;28;20198;-87
2023/07/16 05:30:28;;;;;;;3.35;1.17;;;27.00;78.80;;;;;;4969809;28;20711;-88
2023/07/16 05:32:58;;;;;;;0.38;0.38;;;27.10;78.80;;;;;;4964324;28;20213;-87
2023/07/16 05:35:27;;;;;;;0.20;0.20;;;27.20;78.80;;;;;;4964304;28;20216;-86
2023/07/16 05:37:55;;;;;;;0.95;0.52;;;27.20;78.70;;;;;;4963921;28;20272;-85
2023/07/16 05:40:24;;;;;;;0.52;0.40;;;27.20;78.30;;;;;;4966292;28;20200;-85
2023/07/16 05:42:52;;;;;;;0.20;0.20;;;27.30;78.30;;;;;;4972592;28;20198;-87
2023/07/16 05:45:21;;;;;;;0.45;0.45;;;27.30;78.30;;;;;;4965044;28;20637;-86
2023/07/16 05:47:49;;;;;;;3.08;0.55;;;27.30;77.70;;;;;;4967215;28;20205;-82
2023/07/16 05:50:19;;;;;;;0.50;0.50;;;27.50;77.60;;;;;;4967434;28;20201;-82
2023/07/16 05:52:48;;;;;;;0.20;0.20;;;27.50;77.40;;;;;;4963495;28;20293;-82
2023/07/16 05:55:17;;;;;;;1.40;0.73;;;27.50;77.30;;;;;;4965836;28;20200;-82
2023/07/16 05:57:46;;;;;;;0.40;0.40;;;27.60;77.40;;;;;;4965613;28;20654;-83
2023/07/16 06:00:17;;;;;;;0.68;0.68;;;27.70;77.30;;;;;;4966428;28;20209;-84
2023/07/16 06:02:45;;;;;;;0.50;0.50;;;27.70;76.90;;;;;;4961677;28;20221;-82
2023/07/16 06:05:13;;;;;;;0.20;0.20;;;27.80;76.70;;;;;;4960673;28;20234;-82
2023/07/16 06:07:43;;;;;;;0.63;0.63;;;27.80;76.60;;;;;;4956861;28;20202;-82
2023/07/16 06:10:12;;;;;;;0.30;0.30;;;27.90;76.50;;;;;;4962992;28;20727;-83
2023/07/16 06:12:41;;;;;;;0.20;0.20;;;27.90;76.30;;;;;;4967704;28;20230;-83
2023/07/16 06:15:10;;;;;;;0.25;0.22;;;28.00;76.20;;;;;;4960299;28;20686;-83
2023/07/16 06:17:38;;;;;;;0.90;0.90;;;28.00;75.70;;;;;;4971833;28;20198;-83
2023/07/16 06:20:09;;;;;;;0.38;0.38;;;28.10;75.40;;;;;;4961460;28;20652;-84
2023/07/16 06:22:38;;;;;;;0.32;0.32;;;28.20;75.30;;;;;;4965041;28;20245;-82
2023/07/16 06:25:10;;;;;;;0.40;0.40;;;28.20;74.60;;;;;;4967709;28;20244;-83
2023/07/16 06:27:39;;;;;;;0.60;0.60;;;28.30;74.60;;;;;;4967284;28;20202;-84
2023/07/16 06:30:08;;;;;;;0.60;0.57;;;28.40;74.60;;;;;;4969725;28;20199;-84
2023/07/16 06:32:36;;;;;;;0.20;0.20;;;28.40;74.50;;;;;;4956851;28;20198;-84
2023/07/16 06:35:05;;;;;;;0.20;0.20;;;28.50;74.60;;;;;;4965007;28;20202;-84
2023/07/16 06:37:34;;;;;;;0.38;0.38;;;28.50;74.40;;;;;;4962735;28;20198;-84
2023/07/16 06:40:03;;;;;;;0.30;0.30;;;28.60;74.40;;;;;;4964409;28;20211;-84
2023/07/16 06:42:33;;;;;;;0.55;0.32;;;28.70;74.30;;;;;;4964057;28;20705;-82
2023/07/16 06:45:01;;;;;;;0.47;0.47;;;28.80;74.40;;;;;;4950790;28;20210;-84
2023/07/16 06:47:30;;;;;;;0.70;0.65;;;28.80;75.00;;;;;;4960720;28;20206;-83
2023/07/16 06:49:58;;;;;;;0.52;0.30;;;28.90;73.70;;;;;;4951893;28;20210;-82
2023/07/16 06:52:27;;;;;;;0.75;0.50;;;28.90;73.60;;;;;;4961123;28;20201;-83
2023/07/16 06:54:56;;;;;;;1.15;0.40;;;28.90;73.60;;;;;;4969702;28;20256;-82
2023/07/16 06:57:24;;;;;;;0.82;0.70;;;29.00;73.50;;;;;;4974398;28;20197;-84
2023/07/16 06:59:54;;;;;;;0.40;0.32;;;29.10;73.00;;;;;;4957992;28;20876;-83
2023/07/16 07:02:23;;;;;;;0.32;0.32;;;29.20;73.20;;;;;;4959522;28;20681;-82
2023/07/16 07:04:52;;;;;;;0.30;0.30;;;29.30;73.30;;;;;;4960694;28;20205;-82
2023/07/16 07:07:20;;;;;;;0.63;0.63;;;29.30;72.80;;;;;;4950184;28;20197;-83
2023/07/16 07:09:49;;;;;;;0.47;0.47;;;29.30;72.60;;;;;;4962266;28;20205;-82
2023/07/16 07:12:18;;;;;;;1.67;0.82;;;29.40;72.70;;;;;;4966292;28;20200;-83
2023/07/16 07:14:48;;;;;;;0.30;0.30;;;29.50;72.30;;;;;;4967479;28;20210;-83
2023/07/16 07:17:18;;;;;;;0.20;0.20;;;29.50;72.10;;;;;;4960765;28;20206;-83
2023/07/16 07:19:46;;;;;;;0.40;0.40;;;29.60;71.90;;;;;;4960423;28;20660;-80
2023/07/16 07:22:15;;;;;;;0.40;0.40;;;29.60;71.70;;;;;;4964794;28;20230;-81
2023/07/16 07:24:44;;;;;;;0.30;0.30;;;29.60;71.30;;;;;;4961350;28;20234;-84
2023/07/16 07:27:12;;;;;;;1.05;0.95;;;29.70;71.10;;;;;;4945292;28;20202;-82
2023/07/16 07:29:41;;;;;;;0.60;0.60;;;29.70;71.10;;;;;;4943556;28;20198;-82
2023/07/16 07:32:09;;;;;;;0.20;0.20;;;29.80;71.30;;;;;;4944845;28;20205;-82
2023/07/16 07:34:39;;;;;;;2.05;0.88;;;29.80;70.70;;;;;;4945611;28;20209;-82
2023/07/16 07:37:08;;;;;;;0.43;0.43;;;29.80;70.20;;;;;;4935994;28;20195;-81
2023/07/16 07:39:37;;;;;;;0.43;0.43;;;29.90;70.50;;;;;;4943250;28;20274;-83
2023/07/16 07:42:06;;;;;;;1.70;1.20;;;30.00;70.10;;;;;;4945290;28;20234;-83
2023/07/16 07:44:35;;;;;;;0.90;0.73;;;30.00;70.20;;;;;;4945723;28;20253;-81
2023/07/16 07:47:04;;;;;;;0.85;0.50;;;30.10;70.30;;;;;;4944909;28;20202;-81
2023/07/16 07:49:34;;;;;;;1.00;0.68;;;30.10;70.20;;;;;;4931489;28;20294;-81
2023/07/16 07:52:05;;;;;;;0.90;0.55;;;30.10;69.90;;;;;;4952823;28;20204;-81
2023/07/16 07:54:33;;;;;;;0.35;0.32;;;30.20;69.90;;;;;;4952057;28;20190;-82
2023/07/16 07:57:04;;;;;;;1.17;1.00;;;30.20;69.90;;;;;;4951736;28;20299;-83
2023/07/16 07:59:34;;;;;;;0.43;0.28;;;30.30;69.10;;;;;;4948784;28;20206;-81
2023/07/16 08:02:03;;;;;;;0.60;0.60;;;30.30;68.60;;;;;;4950699;28;20219;-83
2023/07/16 08:04:32;;;;;;;1.95;0.75;;;30.30;68.10;;;;;;4945680;28;20201;-82
2023/07/16 08:07:01;;;;;;;1.10;0.68;;;30.30;68.00;;;;;;4952038;28;20199;-82
2023/07/16 08:09:32;;;;;;;0.68;0.50;;;30.40;68.00;;;;;;4953603;28;20197;-82
2023/07/16 08:12:00;;;;;;;0.30;0.30;;;30.40;68.30;;;;;;4949113;28;20289;-81
2023/07/16 08:14:29;;;;;;;1.30;0.55;;;30.50;68.30;;;;;;4946451;28;20232;-87
2023/07/16 08:16:57;;;;;;;0.35;0.30;;;30.60;68.50;;;;;;4942158;28;20212;-83
2023/07/16 08:19:26;;;;;;;0.65;0.65;;;30.60;68.70;;;;;;4939921;28;20202;-81
2023/07/16 08:21:54;;;;;;;0.45;0.45;;;30.70;68.80;;;;;;4959754;28;20211;-84
2023/07/16 08:24:22;;;;;;;0.40;0.40;;;30.70;68.70;;;;;;4942850;28;20202;-85
2023/07/16 08:26:53;;;;;;;0.70;0.70;;;30.80;68.60;;;;;;4964348;28;20206;-84
2023/07/16 08:29:21;;;;;;;0.60;0.52;;;30.80;68.30;;;;;;4969135;28;20924;-83
2023/07/16 08:31:49;;;;;;;0.35;0.35;;;30.90;68.00;;;;;;4960525;28;20205;-84
2023/07/16 08:34:18;;;;;;;0.55;0.55;;;30.90;68.10;;;;;;4970595;28;20566;-85
2023/07/16 08:36:46;;;;;;;1.98;1.23;;;31.00;68.20;;;;;;4968579;28;20209;-83
2023/07/16 08:39:15;;;;;;;0.63;0.63;;;31.10;68.10;;;;;;4969273;28;20201;-82
2023/07/16 08:41:46;;;;;;;0.28;0.28;;;31.10;68.10;;;;;;4968885;28;20205;-84
2023/07/16 08:44:17;;;;;;;0.55;0.55;;;31.20;68.10;;;;;;4965321;28;20217;-81
2023/07/16 08:46:46;;;;;;;0.55;0.43;;;31.20;67.50;;;;;;4964437;28;20202;-83
2023/07/16 08:49:14;;;;;;;0.80;0.70;;;31.20;67.30;;;;;;4968074;28;20284;-82
2023/07/16 08:51:43;;;;;;;2.60;0.82;;;31.20;66.70;;;;;;4968037;28;20194;-82
2023/07/16 08:54:15;;;;;;;0.32;0.30;;;31.30;66.60;;;;;;4965725;28;20212;-83
2023/07/16 08:56:44;;;;;;;1.45;0.82;;;31.40;66.50;;;;;;4960244;28;20194;-86
2023/07/16 08:59:13;;;;;;;0.38;0.35;;;31.40;66.70;;;;;;4958707;28;20205;-81
2023/07/16 09:01:43;;;;;;;0.30;0.30;;;31.50;66.90;;;;;;4967694;28;20284;-81
2023/07/16 09:04:11;;;;;;;0.52;0.50;;;31.50;65.80;;;;;;4967796;28;20219;-81
2023/07/16 09:06:40;;;;;;;0.40;0.40;;;31.50;64.70;;;;;;4972919;28;20202;-81
2023/07/16 09:09:08;;;;;;;0.70;0.60;;;31.60;65.30;;;;;;4972408;28;20217;-83
2023/07/16 09:11:36;;;;;;;2.55;1.40;;;31.60;65.30;;;;;;4960349;28;20293;-82
2023/07/16 09:14:05;;;;;;;0.77;0.50;;;31.70;64.60;;;;;;4964626;28;20204;-82
2023/07/16 09:16:34;;;;;;;0.77;0.68;;;31.70;64.10;;;;;;4966319;28;20201;-83
2023/07/16 09:19:13;;;;;;;0.68;0.68;;;31.70;62.90;;;;;;4966228;28;20300;-85
2023/07/16 09:21:41;;;;;;;0.38;0.38;;;31.70;63.00;;;;;;4967317;28;20200;-83
2023/07/16 09:24:10;;;;;;;0.88;0.70;;;31.70;63.50;;;;;;4970701;28;20233;-81
2023/07/16 09:26:39;;;;;;;0.28;0.28;;;31.80;63.90;;;;;;4968719;28;20229;-83
2023/07/16 09:29:07;;;;;;;0.52;0.52;;;31.90;64.20;;;;;;4969177;28;20309;-82
2023/07/16 09:31:36;;;;;;;0.63;0.40;;;32.00;64.40;;;;;;4970480;28;20197;-83
2023/07/16 09:34:05;;;;;;;0.50;0.50;;;32.00;64.30;;;;;;4967494;28;20547;-84
2023/07/16 09:36:35;;;;;;;1.25;0.80;;;32.10;64.20;;;;;;4965402;28;20205;-83
2023/07/16 09:39:04;;;;;;;0.73;0.70;;;32.20;64.20;;;;;;4969720;28;20200;-82
2023/07/16 09:41:32;;;;;;;0.50;0.43;;;32.20;63.60;;;;;;4966379;28;20199;-90
2023/07/16 09:44:00;;;;;;;0.30;0.30;;;32.30;64.10;;;;;;4970975;28;20690;-82
2023/07/16 09:46:29;;;;;;;0.52;0.40;;;32.40;62.10;;;;;;4969866;28;20197;-83
2023/07/16 09:48:57;;;;;;;1.02;0.50;;;32.40;61.30;;;;;;4964222;28;20202;-82
2023/07/16 09:51:27;;;;;;;0.35;0.35;;;32.40;60.70;;;;;;4965475;28;20201;-83
2023/07/16 09:53:58;;;;;;;0.40;0.40;;;32.50;61.10;;;;;;4964074;28;20197;-83
2023/07/16 09:56:31;;;;;;;0.50;0.50;;;32.60;60.80;;;;;;4964751;28;20202;-83
2023/07/16 09:59:00;;;;;;;0.38;0.30;;;32.60;60.90;;;;;;4966051;28;20201;-83
2023/07/16 10:01:30;;;;;;;0.30;0.30;;;32.70;60.70;;;;;;4966364;28;20205;-83
2023/07/16 10:03:59;;;;;;;0.43;0.43;;;32.70;60.60;;;;;;4971752;28;20237;-83
2023/07/16 10:06:27;;;;;;;0.30;0.30;;;32.80;60.00;;;;;;4975373;28;20257;-87
2023/07/16 10:08:58;;;;;;;1.08;0.82;;;32.90;59.80;;;;;;4968664;28;20205;-83
2023/07/16 10:11:26;;;;;;;0.30;0.30;;;32.90;59.70;;;;;;4971948;28;20198;-83
2023/07/16 10:13:54;;;;;;;0.73;0.57;;;32.90;58.70;;;;;;4971232;28;20198;-84
2023/07/16 10:16:24;;;;;;;6.43;1.00;;;32.90;59.10;;;;;;4963080;28;20320;-84
2023/07/16 10:18:54;;;;;;;0.93;0.30;;;32.90;57.60;;;;;;4972321;28;20205;-84
2023/07/16 10:21:26;;;;;;;0.30;0.30;;;32.90;57.20;;;;;;4971907;28;20636;-82
2023/07/16 10:24:00;;;;;;;0.85;0.82;;;33.00;57.70;;;;;;4966256;28;20216;-82
2023/07/16 10:26:29;;;;;;;0.85;0.68;;;33.10;57.80;;;;;;4969120;28;20657;-84
2023/07/16 10:28:58;;;;;;;0.95;0.93;;;33.10;58.00;;;;;;4969804;28;20201;-84
2023/07/16 10:31:27;;;;;;;0.50;0.50;;;33.20;58.00;;;;;;4969457;28;20284;-83
2023/07/16 10:34:04;;;;;;;0.47;0.40;;;33.20;57.70;;;;;;4964345;28;20581;-81
2023/07/16 10:36:38;;;;;;;0.40;0.40;;;33.30;57.80;;;;;;4971629;28;20184;-82
2023/07/16 10:39:08;;;;;;;0.30;0.30;;;33.30;57.50;;;;;;4963488;28;20289;-83
2023/07/16 10:41:37;;;;;;;0.88;0.82;;;33.40;57.60;;;;;;4965910;28;20210;-82
2023/07/16 10:44:05;;;;;;;1.88;0.90;;;33.40;56.80;;;;;;4966279;28;20757;-82
2023/07/16 10:46:34;;;;;;;0.68;0.47;;;33.50;56.30;;;;;;4969310;28;20197;-84
2023/07/16 10:49:03;;;;;;;0.40;0.40;;;33.60;56.70;;;;;;4968356;28;20209;-82
2023/07/16 10:51:33;;;;;;;1.63;1.05;;;33.60;56.20;;;;;;4974526;28;20216;-84
2023/07/16 10:54:05;;;;;;;0.38;0.38;;;33.60;56.40;;;;;;4961415;28;20663;-83
2023/07/16 10:56:37;;;;;;;0.60;0.60;;;33.70;56.10;;;;;;4980648;28;20232;-83
2023/07/16 10:59:07;;;;;;;0.63;0.30;;;33.80;55.60;;;;;;4967569;28;20213;-83
2023/07/16 11:01:37;;;;;;;0.55;0.55;;;33.80;55.90;;;;;;4958742;28;20344;-83
2023/07/16 11:04:08;;;;;;;0.98;0.68;;;33.90;55.70;;;;;;4970356;28;20617;-83
2023/07/16 11:06:37;;;;;;;0.47;0.40;;;33.90;55.60;;;;;;4963469;28;20205;-82
2023/07/16 11:09:09;;;;;;;0.20;0.20;;;34.00;55.60;;;;;;4974124;28;20201;-82
2023/07/16 11:11:40;;;;;;;0.40;0.40;;;34.10;55.60;;;;;;4969542;28;20717;-83
2023/07/16 11:14:09;;;;;;;0.40;0.40;;;34.10;55.60;;;;;;4968090;28;21098;-83
2023/07/16 11:16:39;;;;;;;4.65;0.57;;;34.20;55.40;;;;;;4971284;28;20535;-86
2023/07/16 11:19:08;;;;;;;0.32;0.32;;;34.20;55.10;;;;;;4963919;28;20213;-86
2023/07/16 11:21:38;;;;;;;1.65;0.95;;;34.30;54.90;;;;;;4965547;28;20190;-84
2023/07/16 11:24:11;;;;;;;0.80;0.68;;;34.30;54.50;;;;;;4969819;28;20221;-84
2023/07/16 11:26:41;;;;;;;0.40;0.40;;;34.30;53.00;;;;;;4970092;28;20241;-82
2023/07/16 11:29:16;;;;;;;0.68;0.50;;;34.40;53.10;;;;;;4961443;28;20592;-84
2023/07/16 11:31:44;;;;;;;0.40;0.40;;;34.40;52.40;;;;;;4966485;28;20284;-83
2023/07/16 11:34:14;;;;;;;0.57;0.40;;;34.40;52.30;;;;;;4958750;28;20256;-83
2023/07/16 11:36:42;;;;;;;0.75;0.73;;;34.50;52.60;;;;;;4964238;28;20289;-83
2023/07/16 11:39:12;;;;;;;0.50;0.50;;;34.60;52.90;;;;;;4961944;28;20198;-83
2023/07/16 11:41:42;;;;;;;0.30;0.30;;;34.60;52.80;;;;;;4962470;28;20210;-82
2023/07/16 11:44:13;;;;;;;0.40;0.40;;;34.70;53.10;;;;;;4971267;28;20225;-83
2023/07/16 11:46:41;;;;;;;1.45;0.75;;;34.70;53.30;;;;;;4966754;28;20269;-83
2023/07/16 11:49:10;;;;;;;0.93;0.82;;;34.70;52.00;;;;;;4964214;28;20198;-86
2023/07/16 11:51:38;;;;;;;0.50;0.50;;;34.70;52.50;;;;;;4960828;28;20204;-83
2023/07/16 11:54:06;;;;;;;1.35;1.25;;;34.70;52.50;;;;;;4964888;28;20213;-83
2023/07/16 11:56:35;;;;;;;0.65;0.65;;;34.80;51.90;;;;;;4968459;28;20198;-84
2023/07/16 11:59:05;;;;;;;1.25;0.50;;;34.70;51.70;;;;;;4968689;28;20216;-83
2023/07/16 12:01:33;;;;;;;0.60;0.40;;;34.70;51.90;;;;;;4967589;28;20651;-85
2023/07/16 12:04:02;;;;;;;0.93;0.50;;;34.70;51.40;;;;;;4970114;28;20201;-83
2023/07/16 12:06:30;;;;;;;0.40;0.40;;;34.70;50.70;;;;;;4960868;28;20659;-84
2023/07/16 12:08:59;;;;;;;0.60;0.60;;;34.80;50.50;;;;;;4967769;28;20233;-84
2023/07/16 12:11:27;;;;;;;0.45;0.45;;;34.80;51.10;;;;;;4963522;28;21496;-84
2023/07/16 12:13:56;;;;;;;1.83;0.98;;;34.90;51.40;;;;;;4955559;28;20204;-84
2023/07/16 12:16:26;;;;;;;1.05;0.75;;;34.90;50.20;;;;;;4970177;28;20198;-85
2023/07/16 12:18:55;;;;;;;0.20;0.20;;;34.80;50.20;;;;;;4966540;28;20193;-83
2023/07/16 12:21:24;;;;;;;1.23;0.60;;;34.80;50.40;;;;;;4966276;28;20204;-84
2023/07/16 12:23:55;;;;;;;0.77;0.60;;;34.80;50.60;;;;;;4968693;28;20522;-84
2023/07/16 12:26:24;;;;;;;0.95;0.57;;;34.80;50.60;;;;;;4968614;28;20229;-83
2023/07/16 12:28:53;;;;;;;0.75;0.75;;;34.90;49.90;;;;;;4949236;28;20666;-83
2023/07/16 12:31:21;;;;;;;0.30;0.30;;;34.90;50.20;;;;;;4970303;28;20193;-84
2023/07/16 12:33:51;;;;;;;2.10;0.98;;;35.00;50.30;;;;;;4952929;28;20244;-84
2023/07/16 12:36:21;;;;;;;0.85;0.75;;;35.00;49.70;;;;;;4969591;28;20193;-85
2023/07/16 12:38:50;;;;;;;1.65;1.10;;;35.00;48.10;;;;;;4974680;28;20205;-83
2023/07/16 12:41:19;;;;;;;0.30;0.30;;;35.20;48.60;;;;;;4963115;28;20265;-84
2023/07/16 12:43:47;;;;;;;0.77;0.50;;;35.30;49.20;;;;;;4952726;28;20198;-83
2023/07/16 12:46:16;;;;;;;0.30;0.30;;;35.40;49.10;;;;;;4951990;28;20224;-84
2023/07/16 12:48:46;;;;;;;0.60;0.60;;;35.40;49.10;;;;;;4971630;28;20244;-85
2023/07/16 12:51:16;;;;;;;0.57;0.45;;;35.50;49.00;;;;;;4964488;28;20206;-83
2023/07/16 12:53:45;;;;;;;0.47;0.43;;;35.50;48.70;;;;;;4970670;28;20212;-84
2023/07/16 12:56:14;;;;;;;0.55;0.47;;;35.60;48.90;;;;;;4970064;28;20202;-84
2023/07/16 12:58:43;;;;;;;3.75;0.52;;;35.70;48.90;;;;;;4966644;28;20202;-84